Rapports METAR des aéroports proches

 

LFSI - St. Dizier/Robin, France
Distance from station: SO 26km
Mise à jour: 20/04/2018 00:30
clair
clair
 Wind from ESE
Vent: ESE 4 km/h
Température: 14°C
Point de rosée: 12°C
Humidité: 88%
Baromètre: 1024 hPa
Résumé: clair
Visibility: greater than 10 km
2018/04/19 22:30 LFSI 192230Z AUTO 12002KT CAVOK 14/12 Q1024
LFSO - Nancy/Ochey (faf, France
Distance from station: ESE 62km
Mise à jour: 20/04/2018 01:00
clair
clair
 Wind from varies
Vent: varies 4 km/h
Température: 14°C
Point de rosée: 9°C
Humidité: 72%
Baromètre: 1025 hPa
Résumé: clair
Visibility: greater than 10 km
2018/04/19 23:00 LFSO 192300Z AUTO VRB02KT CAVOK 14/09 Q1025
 
LFOK - Chalons/Vatry Fa, France
Distance from station: O 73km
Mise à jour: 20/04/2018 01:00
clair
clair
 Wind from NE
Vent: NE 6 km/h
Température: 19°C
Point de rosée: 10°C
Humidité: 56%
Baromètre: 1024 hPa
Résumé: clair
Visibility: greater than 10 km
2018/04/19 23:00 LFOK 192300Z AUTO 05003KT CAVOK 19/10 Q1024 NOSIG
LFSN - Nancy/Essey, France
Distance from station: E 77km
Mise à jour: 20/04/2018 01:00
clair
clair
 Wind from calm
Vent: calme
Température: 13°C
Point de rosée: 9°C
Humidité: 77%
Baromètre: 1024 hPa
Résumé: clair
Visibility: greater than 10 km
2018/04/19 23:00 LFSN 192300Z AUTO 00000KT CAVOK 13/09 Q1024
 
LFJL - Metz-Nancy-Lorra, France
Distance from station: ENE 82km
Mise à jour: 20/04/2018 01:00
clair
clair
 Wind from varies
Vent: varies 4 km/h
Température: 15°C
Point de rosée: 9°C
Humidité: 68%
Baromètre: 1025 hPa
Résumé: clair
Visibility: greater than 10 km
2018/04/19 23:00 LFJL 192300Z AUTO VRB02KT CAVOK 15/09 Q1025 NOSIG
LFQA - Reims/Prunay, France
Distance from station: ONO 89km
Mise à jour: 20/04/2018 01:00
clair
clair
 Wind from calm
Vent: calme
Température: 11°C
Point de rosée: 10°C
Humidité: 94%
Baromètre: 1024 hPa
Résumé: clair
Visibility: greater than 10 km
2018/04/19 23:00 LFQA 192300Z AUTO 00000KT CAVOK 11/10 Q1024
 
LFQB - Troyes/Barberey, France
Distance from station: OSO 99km
Mise à jour: 20/04/2018 01:00
clair
clair
 Wind from ESE
Vent: ESE 4 km/h
Température: 13°C
Point de rosée: 9°C
Humidité: 77%
Baromètre: 1024 hPa
Résumé: clair
Visibility: greater than 10 km
2018/04/19 23:00 LFQB 192300Z AUTO 11002KT CAVOK 13/09 Q1024
ELLX - Luxembourg (aut), Luxembourg
Distance from station: NE 122km
Mise à jour: 20/04/2018 00:50
clair
clair
 Wind from NE
Vent: NE 9 km/h
Température: 20°C
Point de rosée: 7°C
Humidité: 43%
Baromètre: 1025 hPa
Résumé: clair
Visibility: greater than 10 km
2018/04/19 22:50 ELLX 192250Z 05005KT CAVOK 20/07 Q1025 NOSIG